KNEL/NEL METAR and TAF weather

Enter ICAO airport designator
Station Type Date Time Source
KNEL METAR 2019/07/20 19:00 UTC NOAA

KNEL 201900Z AUTO 27008KT SCT050 37/24 A2982 RMK AO2 SLP094 T03670244 $


Station Type Date Time Source
KNEL Decoded METAR 2019/07/20 19:00 UTC NOAA

Lakehurst Naval Air Station, NJ, United States (KNEL) 40-02N 074-19W 24M
Jul 20, 2019 - 03:00 PM EDT / 2019.07.20 1900 UTC
Wind: from the W (270 degrees) at 9 MPH (8 KT):0
Sky conditions: partly cloudy
Temperature: 98.1 F (36.7 C)
Heat index: 112.1 F (44.5 C):1
Dew Point: 75.9 F (24.4 C)
Relative Humidity: 49%
Pressure (altimeter): 29.82 in. Hg (1009 hPa)
ob: KNEL 201900Z AUTO 27008KT SCT050 37/24 A2982 RMK AO2 SLP094 T03670244
cycle: 19

Station Type Date Time Source
KNEL TAF UTC NOAA

Error!

Example: see airport list